createdAt,value
2019-02-14T00:00:24.630Z,58.19
2019-02-14T00:02:51.476Z,58.14
2019-02-14T00:05:18.390Z,58.26
2019-02-14T00:07:45.173Z,58.46
2019-02-14T00:10:11.961Z,58.15
2019-02-14T00:12:38.890Z,58.39
2019-02-14T00:15:13.491Z,58.45
2019-02-14T00:17:40.276Z,58.77
2019-02-14T00:20:08.510Z,58.31
2019-02-14T00:22:35.276Z,58.27
2019-02-14T00:25:02.404Z,58.42
2019-02-14T00:27:29.194Z,58.45
2019-02-14T00:29:55.989Z,58.53
2019-02-14T00:32:22.918Z,58.45
2019-02-14T00:34:49.695Z,58.62
2019-02-14T00:37:16.486Z,58.93
2019-02-14T00:39:43.402Z,59.06
2019-02-14T00:42:10.187Z,59.57
2019-02-14T00:44:36.957Z,59.43
2019-02-14T00:47:03.777Z,59.55
2019-02-14T00:49:30.571Z,59.33
2019-02-14T00:51:57.514Z,58.97
2019-02-14T00:54:24.315Z,58.85
2019-02-14T00:56:51.078Z,59.26
2019-02-14T00:59:18.007Z,59.20
2019-02-14T01:01:44.790Z,59.06
2019-02-14T01:04:11.645Z,58.89
2019-02-14T01:06:38.462Z,58.91
2019-02-14T01:09:05.557Z,58.98
2019-02-14T01:11:32.476Z,59.07
2019-02-14T01:13:59.273Z,59.11
2019-02-14T01:16:26.070Z,59.02
2019-02-14T01:18:52.921Z,59.00
2019-02-14T01:21:19.713Z,59.52
2019-02-14T01:23:46.497Z,59.37
2019-02-14T01:26:13.406Z,59.28
2019-02-14T01:28:40.207Z,59.22
2019-02-14T01:31:06.996Z,59.30
2019-02-14T01:33:33.811Z,59.07
2019-02-14T01:36:00.578Z,59.10
2019-02-14T01:38:27.409Z,59.00
2019-02-14T01:40:54.211Z,58.94
2019-02-14T01:43:20.994Z,58.95
2019-02-14T01:45:47.837Z,59.15
2019-02-14T01:48:14.612Z,59.29
2019-02-14T01:50:41.408Z,59.63
2019-02-14T01:53:08.335Z,59.76
2019-02-14T01:55:35.109Z,59.83
2019-02-14T01:58:01.902Z,59.67
2019-02-14T02:00:28.750Z,59.73
2019-02-14T02:02:55.550Z,59.67
2019-02-14T02:05:22.550Z,59.57
2019-02-14T02:07:49.333Z,59.41
2019-02-14T02:10:16.111Z,59.32
2019-02-14T02:12:42.934Z,59.41
2019-02-14T02:15:13.707Z,59.68
2019-02-14T02:17:40.648Z,59.56
2019-02-14T02:20:08.932Z,59.48
2019-02-14T02:22:35.719Z,59.46
2019-02-14T02:25:03.871Z,59.48
2019-02-14T02:27:34.285Z,59.39
2019-02-14T02:30:01.069Z,59.27
2019-02-14T02:32:27.885Z,59.28
2019-02-14T02:34:54.680Z,59.26
2019-02-14T02:37:21.538Z,59.27
2019-02-14T02:39:48.313Z,59.32
2019-02-14T02:42:15.096Z,59.24
2019-02-14T02:44:42.036Z,59.19
2019-02-14T02:47:08.822Z,59.23
2019-02-14T02:49:35.623Z,59.47
2019-02-14T02:52:02.438Z,59.48
2019-02-14T02:54:29.220Z,59.75
2019-02-14T02:56:56.158Z,59.86
2019-02-14T02:59:22.948Z,59.67
2019-02-14T03:01:49.724Z,59.21
2019-02-14T03:04:16.561Z,59.23
2019-02-14T03:06:47.137Z,59.40
2019-02-14T03:09:13.921Z,59.29
2019-02-14T03:11:40.747Z,59.18
2019-02-14T03:14:07.518Z,59.04
2019-02-14T03:16:34.324Z,59.02
2019-02-14T03:19:01.227Z,59.05
2019-02-14T03:21:28.004Z,58.93
2019-02-14T03:23:54.791Z,59.04
2019-02-14T03:26:21.715Z,59.21
2019-02-14T03:28:48.510Z,59.25
2019-02-14T03:31:15.315Z,59.24
2019-02-14T03:33:42.127Z,59.39
2019-02-14T03:36:08.908Z,59.39
2019-02-14T03:38:35.688Z,59.35
2019-02-14T03:41:02.518Z,59.16
2019-02-14T03:43:29.299Z,59.17
2019-02-14T03:45:56.078Z,59.18
2019-02-14T03:48:23.006Z,59.16
2019-02-14T03:50:49.794Z,59.24
2019-02-14T03:53:16.589Z,59.34
2019-02-14T03:55:43.518Z,59.41
2019-02-14T03:58:10.309Z,59.57
2019-02-14T04:00:37.093Z,59.45
2019-02-14T04:03:03.918Z,59.17
2019-02-14T04:05:30.694Z,59.15
2019-02-14T04:07:57.649Z,59.74
2019-02-14T04:10:24.432Z,59.56
2019-02-14T04:12:51.222Z,59.20
2019-02-14T04:15:18.139Z,58.97
2019-02-14T04:17:44.921Z,58.97
2019-02-14T04:20:12.511Z,59.01
2019-02-14T04:22:39.480Z,59.08
2019-02-14T04:25:08.182Z,59.19
2019-02-14T04:27:35.040Z,59.00
2019-02-14T04:30:01.877Z,59.07
2019-02-14T04:32:28.664Z,59.24
2019-02-14T04:34:55.577Z,59.23
2019-02-14T04:37:22.466Z,59.14
2019-02-14T04:39:49.257Z,59.02
2019-02-14T04:42:16.177Z,59.07
2019-02-14T04:44:42.958Z,59.23
2019-02-14T04:47:09.741Z,58.94
2019-02-14T04:49:36.752Z,58.72
2019-02-14T04:52:08.571Z,58.80
2019-02-14T04:54:35.377Z,59.00
2019-02-14T04:57:02.203Z,59.10
2019-02-14T04:59:28.983Z,59.03
2019-02-14T05:01:55.911Z,58.93
2019-02-14T05:04:22.704Z,59.08
2019-02-14T05:06:54.979Z,59.18
2019-02-14T05:09:19.112Z,59.44
2019-02-14T05:11:48.651Z,59.18
2019-02-14T05:14:15.433Z,59.20
2019-02-14T05:16:42.293Z,59.00
2019-02-14T05:19:09.095Z,59.22
2019-02-14T05:21:35.896Z,59.20
2019-02-14T05:24:22.479Z,59.35
2019-02-14T05:26:49.252Z,59.44
2019-02-14T05:29:16.166Z,59.29
2019-02-14T05:31:42.969Z,59.37
2019-02-14T05:34:09.767Z,59.61
2019-02-14T05:36:36.646Z,59.26
2019-02-14T05:39:04.337Z,59.11
2019-02-14T05:41:31.279Z,59.08
2019-02-14T05:43:58.088Z,58.94
2019-02-14T05:46:24.881Z,59.37
2019-02-14T05:48:51.859Z,59.13
2019-02-14T05:51:18.643Z,59.08
2019-02-14T05:53:45.430Z,59.02
2019-02-14T05:56:12.261Z,59.02
2019-02-14T05:58:39.107Z,59.29
2019-02-14T06:01:05.957Z,59.11
2019-02-14T06:03:32.748Z,59.28
2019-02-14T06:05:59.516Z,58.83
2019-02-14T06:08:26.453Z,59.24
2019-02-14T06:10:53.267Z,58.88
2019-02-14T06:13:20.051Z,59.12
2019-02-14T06:15:46.960Z,59.24
2019-02-14T06:18:13.753Z,59.48
2019-02-14T06:20:40.613Z,59.27
2019-02-14T06:23:07.391Z,59.00
2019-02-14T06:25:34.176Z,59.15
2019-02-14T06:28:00.985Z,58.98
2019-02-14T06:30:28.679Z,59.29
2019-02-14T06:32:55.655Z,59.33
2019-02-14T06:35:22.455Z,59.06
2019-02-14T06:37:49.231Z,59.19
2019-02-14T06:40:16.069Z,59.55
2019-02-14T06:42:42.843Z,59.36
2019-02-14T06:45:12.696Z,58.89
2019-02-14T06:47:39.468Z,58.84
2019-02-14T06:50:07.878Z,58.95
2019-02-14T06:52:34.703Z,58.79
2019-02-14T06:55:01.476Z,58.92
2019-02-14T06:57:28.317Z,58.96
2019-02-14T06:59:55.111Z,58.99
2019-02-14T07:02:21.900Z,59.10
2019-02-14T07:04:48.802Z,59.31
2019-02-14T07:07:18.551Z,59.00
2019-02-14T07:09:44.193Z,58.75
2019-02-14T07:12:11.055Z,59.05
2019-02-14T07:14:37.846Z,58.87
2019-02-14T07:17:04.771Z,59.03
2019-02-14T07:19:31.553Z,59.07
2019-02-14T07:21:59.195Z,59.05
2019-02-14T07:24:26.131Z,59.41
2019-02-14T07:26:52.972Z,59.43
2019-02-14T07:29:19.762Z,59.19
2019-02-14T07:31:46.608Z,59.37
2019-02-14T07:34:13.402Z,59.05
2019-02-14T07:36:40.325Z,59.02
2019-02-14T07:39:07.106Z,58.91
2019-02-14T07:41:33.885Z,59.04
2019-02-14T07:44:00.716Z,59.13
2019-02-14T07:46:27.491Z,59.34
2019-02-14T07:48:54.346Z,59.20
2019-02-14T07:51:21.134Z,58.93
2019-02-14T07:53:47.920Z,58.50
2019-02-14T07:56:14.756Z,58.54
2019-02-14T07:58:41.559Z,58.44
2019-02-14T08:01:08.340Z,58.36
2019-02-14T08:03:35.169Z,58.63
2019-02-14T08:06:01.966Z,58.87
2019-02-14T08:08:28.805Z,58.45
2019-02-14T08:10:55.627Z,58.63
2019-02-14T08:13:22.428Z,58.88
2019-02-14T08:15:49.303Z,58.86
2019-02-14T08:18:16.138Z,58.65
2019-02-14T08:20:42.878Z,58.55
2019-02-14T08:23:09.723Z,58.69
2019-02-14T08:25:36.506Z,58.62
2019-02-14T08:28:03.301Z,58.40
2019-02-14T08:30:30.123Z,58.13
2019-02-14T08:32:56.913Z,58.29
2019-02-14T08:35:23.775Z,58.28
2019-02-14T08:37:50.553Z,57.73
2019-02-14T08:40:30.050Z,58.75
2019-02-14T08:42:58.582Z,58.42
2019-02-14T08:45:25.412Z,58.02
2019-02-14T08:47:52.339Z,57.59
2019-02-14T08:50:19.124Z,57.55
2019-02-14T08:52:46.852Z,57.70
2019-02-14T08:55:13.678Z,57.77
2019-02-14T08:57:40.465Z,57.66
2019-02-14T09:00:15.855Z,57.45
2019-02-14T09:02:42.633Z,57.47
2019-02-14T09:05:09.431Z,57.40
2019-02-14T09:07:36.277Z,57.48
2019-02-14T09:10:07.766Z,57.83
2019-02-14T09:12:35.651Z,57.75
2019-02-14T09:15:05.346Z,57.57
2019-02-14T09:17:32.144Z,57.19
2019-02-14T09:19:58.932Z,56.52
2019-02-14T09:22:25.778Z,56.33
2019-02-14T09:24:52.579Z,56.71
2019-02-14T09:27:19.349Z,57.05
2019-02-14T09:29:46.253Z,56.99
2019-02-14T09:32:13.048Z,56.73
2019-02-14T09:34:39.823Z,56.95
2019-02-14T09:37:06.678Z,56.64
2019-02-14T09:39:40.811Z,56.39
2019-02-14T09:42:02.050Z,56.52
2019-02-14T09:44:28.910Z,57.01
2019-02-14T09:46:55.710Z,56.48
2019-02-14T09:49:22.489Z,56.39
2019-02-14T09:51:49.328Z,56.11
2019-02-14T09:54:16.155Z,56.06
2019-02-14T09:56:42.996Z,55.87
2019-02-14T09:59:09.781Z,55.85
2019-02-14T10:01:36.562Z,55.57
2019-02-14T10:04:03.498Z,55.63
2019-02-14T10:06:36.454Z,55.63
2019-02-14T10:09:00.644Z,55.59
2019-02-14T10:11:27.606Z,55.54
2019-02-14T10:13:54.440Z,56.04
2019-02-14T10:16:21.250Z,55.14
2019-02-14T10:18:48.102Z,54.90
2019-02-14T10:21:14.881Z,55.04
2019-02-14T10:23:41.678Z,55.51
2019-02-14T10:26:08.540Z,55.57
2019-02-14T10:28:35.343Z,55.59
2019-02-14T10:31:02.112Z,55.71
2019-02-14T10:33:28.963Z,56.51
2019-02-14T10:35:55.759Z,56.93
2019-02-14T10:38:22.858Z,56.53
2019-02-14T10:40:49.661Z,56.65
2019-02-14T10:43:16.451Z,56.82
2019-02-14T10:45:43.274Z,56.77
2019-02-14T10:48:10.073Z,56.11
2019-02-14T10:50:39.235Z,56.10
2019-02-14T10:53:08.013Z,56.29
2019-02-14T10:55:34.851Z,56.28
2019-02-14T10:58:07.930Z,55.75
2019-02-14T11:00:30.714Z,56.27
2019-02-14T11:02:57.498Z,56.51
2019-02-14T11:05:24.433Z,56.83
2019-02-14T11:07:51.211Z,56.36
2019-02-14T11:10:17.998Z,56.16
2019-02-14T11:12:44.939Z,56.05
2019-02-14T11:15:20.793Z,56.05
2019-02-14T11:17:49.034Z,55.38
2019-02-14T11:20:17.845Z,55.95
2019-02-14T11:22:44.614Z,56.05
2019-02-14T11:25:16.880Z,56.14
2019-02-14T11:27:44.043Z,55.95
2019-02-14T11:30:13.245Z,56.02
2019-02-14T11:32:40.177Z,55.96
2019-02-14T11:35:09.126Z,55.64
2019-02-14T11:37:35.905Z,55.60
2019-02-14T11:40:04.544Z,55.79
2019-02-14T11:42:31.332Z,55.96
2019-02-14T11:44:58.182Z,55.27
2019-02-14T11:47:24.980Z,54.50
2019-02-14T11:49:51.762Z,54.85
2019-02-14T11:52:18.617Z,55.20
2019-02-14T11:54:45.476Z,55.07
2019-02-14T11:57:12.245Z,54.74
2019-02-14T11:59:40.527Z,52.86
2019-02-14T12:02:07.417Z,51.58
2019-02-14T12:04:34.194Z,50.10
2019-02-14T12:07:01.011Z,48.55
2019-02-14T12:09:27.786Z,47.37
2019-02-14T12:11:54.693Z,46.61
2019-02-14T12:14:21.480Z,44.69
2019-02-14T12:16:48.312Z,43.25
2019-02-14T12:19:15.259Z,42.15
2019-02-14T12:21:42.055Z,41.13
2019-02-14T12:24:08.830Z,40.07
2019-02-14T12:26:35.809Z,38.92
2019-02-14T12:29:02.570Z,38.79
2019-02-14T12:31:29.363Z,37.49
2019-02-14T12:33:56.279Z,37.05
2019-02-14T12:36:23.065Z,37.01
2019-02-14T12:38:49.838Z,36.03
2019-02-14T12:41:16.770Z,36.03
2019-02-14T12:43:43.577Z,36.14
2019-02-14T12:46:10.310Z,35.47
2019-02-14T12:48:37.233Z,35.59
2019-02-14T12:51:04.013Z,35.28
2019-02-14T12:53:30.800Z,34.93
2019-02-14T12:55:57.760Z,34.95
2019-02-14T12:58:24.531Z,34.97
2019-02-14T13:00:51.340Z,34.57
2019-02-14T13:03:18.181Z,34.78
2019-02-14T13:05:45.179Z,35.65
2019-02-14T13:08:12.062Z,34.48
2019-02-14T13:10:38.872Z,34.31
2019-02-14T13:13:05.648Z,33.94
2019-02-14T13:15:32.886Z,34.33
2019-02-14T13:17:59.705Z,34.65
2019-02-14T13:20:26.486Z,34.26
2019-02-14T13:22:53.313Z,34.71
2019-02-14T13:25:20.101Z,33.93
2019-02-14T13:27:46.953Z,33.56
2019-02-14T13:30:20.719Z,34.04
2019-02-14T13:32:47.600Z,33.70
2019-02-14T13:35:14.466Z,34.45
2019-02-14T13:37:41.334Z,35.04
2019-02-14T13:40:08.080Z,36.36
2019-02-14T13:42:35.015Z,37.88
2019-02-14T13:45:01.811Z,38.59
2019-02-14T13:47:28.593Z,39.38
2019-02-14T13:49:55.453Z,40.68
2019-02-14T13:52:22.246Z,42.05
2019-02-14T13:54:49.036Z,43.44
2019-02-14T13:57:15.853Z,43.02
2019-02-14T13:59:42.631Z,43.31
2019-02-14T14:02:09.456Z,43.38
2019-02-14T14:04:36.245Z,44.35
2019-02-14T14:07:03.013Z,45.12
2019-02-14T14:09:38.233Z,46.05
2019-02-14T14:11:58.439Z,45.53
2019-02-14T14:14:36.379Z,46.17
2019-02-14T14:17:09.817Z,46.62
2019-02-14T14:19:42.980Z,47.44
2019-02-14T14:22:12.497Z,47.51
2019-02-14T14:24:44.510Z,47.96
2019-02-14T14:27:15.179Z,47.86
2019-02-14T14:29:49.599Z,47.98
2019-02-14T14:32:16.389Z,48.31
2019-02-14T14:34:44.275Z,47.94
2019-02-14T14:37:12.747Z,48.17
2019-02-14T14:39:47.588Z,48.66
2019-02-14T14:42:08.225Z,49.12
2019-02-14T14:44:35.008Z,48.79
2019-02-14T14:47:01.818Z,48.64
2019-02-14T14:49:28.652Z,48.74
2019-02-14T14:51:55.447Z,48.46
2019-02-14T14:54:22.410Z,48.42
2019-02-14T14:56:49.186Z,48.47
2019-02-14T14:59:15.992Z,48.90
2019-02-14T15:01:42.907Z,49.08
2019-02-14T15:04:09.702Z,48.81
2019-02-14T15:06:36.482Z,49.39
2019-02-14T15:09:05.202Z,49.89
2019-02-14T15:11:31.984Z,50.13
2019-02-14T15:14:10.766Z,50.04
2019-02-14T15:16:36.728Z,50.05
2019-02-14T15:19:03.642Z,50.35
2019-02-14T15:21:30.507Z,49.86
2019-02-14T15:23:57.315Z,49.67
2019-02-14T15:26:24.083Z,50.39
2019-02-14T15:28:51.059Z,50.23
2019-02-14T15:31:17.847Z,50.48
2019-02-14T15:33:44.634Z,50.87
2019-02-14T15:36:11.464Z,50.81
2019-02-14T15:38:38.232Z,51.07
2019-02-14T15:41:05.091Z,51.09
2019-02-14T15:43:31.896Z,51.39
2019-02-14T15:45:58.688Z,51.33
2019-02-14T15:48:25.640Z,51.35
2019-02-14T15:50:54.365Z,51.55
2019-02-14T15:53:21.560Z,51.71
2019-02-14T15:55:48.654Z,51.90
2019-02-14T15:58:15.433Z,51.46
2019-02-14T16:00:42.231Z,51.53
2019-02-14T16:03:09.072Z,51.97
2019-02-14T16:05:38.491Z,51.90
2019-02-14T16:08:06.384Z,52.02
2019-02-14T16:10:33.207Z,52.28
2019-02-14T16:13:01.810Z,52.06
2019-02-14T16:15:30.542Z,51.83
2019-02-14T16:17:58.919Z,51.92
2019-02-14T16:20:25.948Z,51.48
2019-02-14T16:22:52.832Z,51.93
2019-02-14T16:25:19.629Z,52.01
2019-02-14T16:27:48.096Z,52.03
2019-02-14T16:30:16.603Z,52.34
2019-02-14T16:32:43.507Z,52.39
2019-02-14T16:35:10.440Z,52.19
2019-02-14T16:37:37.260Z,52.05
2019-02-14T16:40:07.957Z,51.73
2019-02-14T16:42:34.879Z,51.79
2019-02-14T16:45:01.667Z,52.04
2019-02-14T16:47:28.470Z,52.34
2019-02-14T16:49:56.584Z,52.24
2019-02-14T16:52:23.379Z,51.87
2019-02-14T16:54:50.213Z,51.49
2019-02-14T16:57:17.149Z,51.52
2019-02-14T16:59:43.921Z,51.93
2019-02-14T17:02:10.751Z,51.91
2019-02-14T17:04:37.590Z,52.32
2019-02-14T17:07:04.384Z,52.71
2019-02-14T17:09:31.303Z,52.87
2019-02-14T17:11:58.089Z,52.65
2019-02-14T17:14:24.879Z,52.81
2019-02-14T17:16:51.808Z,53.06
2019-02-14T17:19:18.729Z,53.22
2019-02-14T17:21:45.571Z,53.16
2019-02-14T17:24:12.445Z,53.02
2019-02-14T17:26:39.294Z,52.97
2019-02-14T17:29:06.072Z,53.16
2019-02-14T17:31:32.972Z,53.36
2019-02-14T17:33:59.760Z,53.43
2019-02-14T17:36:26.639Z,53.65
2019-02-14T17:38:53.673Z,53.76
2019-02-14T17:41:20.520Z,53.64
2019-02-14T17:43:47.427Z,53.88
2019-02-14T17:46:14.278Z,53.78
2019-02-14T17:48:41.074Z,53.80
2019-02-14T17:51:08.053Z,53.96
2019-02-14T17:53:34.865Z,53.87
2019-02-14T17:56:01.705Z,53.96
2019-02-14T17:58:28.738Z,53.78
2019-02-14T18:00:55.766Z,53.64
2019-02-14T18:03:22.985Z,53.54
2019-02-14T18:05:49.922Z,54.04
2019-02-14T18:08:16.897Z,54.04
2019-02-14T18:10:43.959Z,53.84
2019-02-14T18:13:10.898Z,53.70
2019-02-14T18:15:37.839Z,53.88
2019-02-14T18:18:05.009Z,53.91
2019-02-14T18:20:32.063Z,53.60
2019-02-14T18:22:59.024Z,53.54
2019-02-14T18:25:26.150Z,53.87
2019-02-14T18:27:53.196Z,53.82
2019-02-14T18:30:20.195Z,53.95
2019-02-14T18:32:47.360Z,53.84
2019-02-14T18:35:14.295Z,53.86
2019-02-14T18:37:41.416Z,53.74
2019-02-14T18:40:09.672Z,53.54
2019-02-14T18:42:40.818Z,53.59
2019-02-14T18:45:11.255Z,54.03
2019-02-14T18:47:39.884Z,54.06
2019-02-14T18:50:11.733Z,53.86
2019-02-14T18:52:38.570Z,53.90
2019-02-14T18:55:08.528Z,53.71
2019-02-14T18:57:35.460Z,53.90
2019-02-14T19:00:05.461Z,53.89
2019-02-14T19:02:32.507Z,53.79
2019-02-14T19:04:59.656Z,53.77
2019-02-14T19:07:26.797Z,53.89
2019-02-14T19:09:53.753Z,54.05
2019-02-14T19:12:20.697Z,53.75
2019-02-14T19:14:47.803Z,53.60
2019-02-14T19:17:14.846Z,53.70
2019-02-14T19:19:41.877Z,53.88
2019-02-14T19:22:08.968Z,54.16
2019-02-14T19:24:36.040Z,54.22
2019-02-14T19:27:03.193Z,54.33
2019-02-14T19:29:30.493Z,54.15
2019-02-14T19:31:57.439Z,53.95
2019-02-14T19:34:24.467Z,54.00
2019-02-14T19:36:51.581Z,54.01
2019-02-14T19:39:18.623Z,54.03
2019-02-14T19:41:45.671Z,53.79
2019-02-14T19:44:12.755Z,53.82
2019-02-14T19:46:39.893Z,54.06
2019-02-14T19:49:07.070Z,54.11
2019-02-14T19:51:34.209Z,53.92
2019-02-14T19:54:01.355Z,53.75
2019-02-14T19:56:28.412Z,53.82
2019-02-14T19:58:55.433Z,54.00
2019-02-14T20:01:22.466Z,53.66
2019-02-14T20:03:49.400Z,53.44
2019-02-14T20:06:16.587Z,53.63
2019-02-14T20:08:43.437Z,53.82
2019-02-14T20:11:10.499Z,53.62
2019-02-14T20:13:37.522Z,53.83
2019-02-14T20:16:04.915Z,53.49
2019-02-14T20:18:32.397Z,53.68
2019-02-14T20:20:59.313Z,53.90
2019-02-14T20:23:26.312Z,54.20
2019-02-14T20:25:53.409Z,54.34
2019-02-14T20:28:20.221Z,54.19
2019-02-14T20:30:47.245Z,53.97
2019-02-14T20:33:14.243Z,54.13
2019-02-14T20:35:41.177Z,54.05
2019-02-14T20:38:08.118Z,54.21
2019-02-14T20:40:34.916Z,54.06
2019-02-14T20:43:01.720Z,53.83
2019-02-14T20:45:28.550Z,53.88
2019-02-14T20:47:56.984Z,54.06
2019-02-14T20:50:23.932Z,54.25
2019-02-14T20:52:50.663Z,54.17
2019-02-14T20:55:24.861Z,54.30
2019-02-14T20:57:51.706Z,54.06
2019-02-14T21:00:18.478Z,54.32
2019-02-14T21:02:45.431Z,54.44
2019-02-14T21:05:12.171Z,54.08
2019-02-14T21:07:38.913Z,54.15
2019-02-14T21:10:06.437Z,54.32
2019-02-14T21:12:33.268Z,54.38
2019-02-14T21:14:59.995Z,54.82
2019-02-14T21:17:26.785Z,54.86
2019-02-14T21:19:54.962Z,54.66
2019-02-14T21:22:21.706Z,54.72
2019-02-14T21:24:48.605Z,54.24
2019-02-14T21:27:15.311Z,54.31
2019-02-14T21:29:42.037Z,54.61
2019-02-14T21:32:08.911Z,54.61
2019-02-14T21:34:35.640Z,54.68
2019-02-14T21:37:02.378Z,54.48
2019-02-14T21:39:29.191Z,54.73
2019-02-14T21:42:17.591Z,55.04
2019-02-14T21:44:24.459Z,54.93
2019-02-14T21:46:51.248Z,54.93
2019-02-14T21:49:17.990Z,54.78
2019-02-14T21:51:44.724Z,54.75
2019-02-14T21:54:16.701Z,54.68
2019-02-14T21:56:40.119Z,54.70
2019-02-14T21:59:06.862Z,54.67
2019-02-14T22:01:33.659Z,54.70
2019-02-14T22:04:00.348Z,54.41
2019-02-14T22:06:27.224Z,54.34
2019-02-14T22:08:53.932Z,54.18
2019-02-14T22:11:20.696Z,54.01
2019-02-14T22:13:47.551Z,53.90
2019-02-14T22:16:14.267Z,53.95
2019-02-14T22:18:40.986Z,53.41
2019-02-14T22:21:07.774Z,53.62
2019-02-14T22:23:34.507Z,53.87
2019-02-14T22:26:06.155Z,54.11
2019-02-14T22:28:36.904Z,54.37
2019-02-14T22:31:03.646Z,54.52
2019-02-14T22:33:30.436Z,54.61
2019-02-14T22:35:57.193Z,54.42
2019-02-14T22:38:23.911Z,54.68
2019-02-14T22:40:50.705Z,54.71
2019-02-14T22:43:17.516Z,54.49
2019-02-14T22:45:44.244Z,54.47
2019-02-14T22:48:11.051Z,55.01
2019-02-14T22:50:37.792Z,54.51
2019-02-14T22:53:04.519Z,54.29
2019-02-14T22:55:31.300Z,54.45
2019-02-14T22:57:58.035Z,54.54
2019-02-14T23:00:47.178Z,54.35
2019-02-14T23:03:13.995Z,54.51
2019-02-14T23:05:40.713Z,54.69
2019-02-14T23:08:07.591Z,54.56
2019-02-14T23:10:34.303Z,54.64
2019-02-14T23:13:01.048Z,54.82
2019-02-14T23:15:27.860Z,54.84
2019-02-14T23:17:54.609Z,54.72
2019-02-14T23:20:21.332Z,54.77
2019-02-14T23:22:48.111Z,54.56
2019-02-14T23:25:14.844Z,54.31
2019-02-14T23:27:41.752Z,54.58
2019-02-14T23:30:10.774Z,55.05
2019-02-14T23:32:37.515Z,54.96
2019-02-14T23:35:04.283Z,55.11
2019-02-14T23:37:31.026Z,55.15
2019-02-14T23:39:57.759Z,54.90
2019-02-14T23:42:24.624Z,54.86
2019-02-14T23:44:51.333Z,54.68
2019-02-14T23:47:18.076Z,54.29
2019-02-14T23:49:44.950Z,54.36
2019-02-14T23:52:11.624Z,54.65
2019-02-14T23:54:38.373Z,54.81
2019-02-14T23:57:05.243Z,54.86
2019-02-14T23:59:31.984Z,55.00
